Archival Weather

Republic

Farmingdale, New York (KFRG)

Report from: Saturday, February 17, 2024 8:48 AM EST
Current time: Friday, June 21, 2024 6:59 PM EDT

Current weather – Weather history – Daily summaries
Weather forecast

Present weatherMist
Temperature-1.0°C (30.2°F)
Wind chill-4.3°C (24.3°F)
Dew point-2.0°C (28.4°F)
Winds 5 kts (2.6 m/s, 5.8 mph) North-Northeast (30°)
Visibility2.5 mi. (4 km)
Clouds Ceiling: Broken clouds 3,100 ft. (945 m)
Overcast 4,000 ft. (1,219 m)
Altimeter29.75 in.Hg (1007 mB)
Relative humidity93 %
Density altitude-1,680 ft. (-512 m)
Remarks Automated weather observing station without precipitation discriminator
Flight conditions Instrument Meteorological Conditions
Raw dataKFRG 171348Z 03005KT 2 1/2SM BR BKN031 OVC040 M01/M02 A2975 RMK AO1
An error has occurred. This application may no longer respond until reloaded. Reload 🗙